sensor_id;sensor_type;location;lat;lon;timestamp;temperature;humidity
11474;DHT22;5793;52.238;13.438;2022-12-20T00:01:26;4.30;99.90
11474;DHT22;5793;52.238;13.438;2022-12-20T00:03:56;4.20;99.90
11474;DHT22;5793;52.238;13.438;2022-12-20T00:06:25;4.30;99.90
11474;DHT22;5793;52.238;13.438;2022-12-20T00:08:55;4.30;99.90
11474;DHT22;5793;52.238;13.438;2022-12-20T00:11:23;4.30;99.90
11474;DHT22;5793;52.238;13.438;2022-12-20T00:13:51;4.30;99.90
11474;DHT22;5793;52.238;13.438;2022-12-20T00:16:21;4.30;99.90
11474;DHT22;5793;52.238;13.438;2022-12-20T00:18:50;4.20;99.90
11474;DHT22;5793;52.238;13.438;2022-12-20T00:21:20;4.30;99.90
11474;DHT22;5793;52.238;13.438;2022-12-20T00:23:48;4.30;99.90
11474;DHT22;5793;52.238;13.438;2022-12-20T00:26:18;4.30;99.90
11474;DHT22;5793;52.238;13.438;2022-12-20T00:28:46;4.30;99.90
11474;DHT22;5793;52.238;13.438;2022-12-20T00:31:16;4.30;99.90
11474;DHT22;5793;52.238;13.438;2022-12-20T00:33:46;4.30;99.90
11474;DHT22;5793;52.238;13.438;2022-12-20T00:36:15;4.30;99.90
11474;DHT22;5793;52.238;13.438;2022-12-20T00:38:44;4.30;99.90
11474;DHT22;5793;52.238;13.438;2022-12-20T00:41:14;4.30;99.90
11474;DHT22;5793;52.238;13.438;2022-12-20T00:43:43;4.40;99.90
11474;DHT22;5793;52.238;13.438;2022-12-20T00:46:12;4.40;99.90
11474;DHT22;5793;52.238;13.438;2022-12-20T00:48:41;4.40;99.90
11474;DHT22;5793;52.238;13.438;2022-12-20T00:51:11;4.50;99.90
11474;DHT22;5793;52.238;13.438;2022-12-20T00:53:39;4.50;99.90
11474;DHT22;5793;52.238;13.438;2022-12-20T00:56:09;4.50;99.90
11474;DHT22;5793;52.238;13.438;2022-12-20T00:58:39;4.50;99.90
11474;DHT22;5793;52.238;13.438;2022-12-20T01:01:18;4.50;99.90
11474;DHT22;5793;52.238;13.438;2022-12-20T01:03:46;4.40;99.90
11474;DHT22;5793;52.238;13.438;2022-12-20T01:06:15;4.50;99.90
11474;DHT22;5793;52.238;13.438;2022-12-20T01:08:43;4.50;99.90
11474;DHT22;5793;52.238;13.438;2022-12-20T01:11:13;4.40;99.90
11474;DHT22;5793;52.238;13.438;2022-12-20T01:13:43;4.40;99.90
11474;DHT22;5793;52.238;13.438;2022-12-20T01:16:13;4.40;99.90
11474;DHT22;5793;52.238;13.438;2022-12-20T01:18:41;4.50;99.90
11474;DHT22;5793;52.238;13.438;2022-12-20T01:21:11;4.40;99.90
11474;DHT22;5793;52.238;13.438;2022-12-20T01:23:39;4.50;99.90
11474;DHT22;5793;52.238;13.438;2022-12-20T01:26:10;4.40;99.90
11474;DHT22;5793;52.238;13.438;2022-12-20T01:28:42;4.50;99.90
11474;DHT22;5793;52.238;13.438;2022-12-20T01:31:12;4.50;99.90
11474;DHT22;5793;52.238;13.438;2022-12-20T01:33:40;4.40;99.90
11474;DHT22;5793;52.238;13.438;2022-12-20T01:36:10;4.40;99.90
11474;DHT22;5793;52.238;13.438;2022-12-20T01:38:38;4.50;99.90
11474;DHT22;5793;52.238;13.438;2022-12-20T01:41:06;4.50;99.90
11474;DHT22;5793;52.238;13.438;2022-12-20T01:43:48;4.40;99.90
11474;DHT22;5793;52.238;13.438;2022-12-20T01:46:18;4.50;99.90
11474;DHT22;5793;52.238;13.438;2022-12-20T01:48:51;4.50;99.90
11474;DHT22;5793;52.238;13.438;2022-12-20T01:51:20;4.50;99.90
11474;DHT22;5793;52.238;13.438;2022-12-20T01:53:53;4.50;99.90
11474;DHT22;5793;52.238;13.438;2022-12-20T01:56:22;4.40;99.90
11474;DHT22;5793;52.238;13.438;2022-12-20T01:58:52;4.50;99.90
11474;DHT22;5793;52.238;13.438;2022-12-20T02:01:22;4.50;99.90
11474;DHT22;5793;52.238;13.438;2022-12-20T02:03:53;4.50;99.90
11474;DHT22;5793;52.238;13.438;2022-12-20T02:06:23;4.50;99.90
11474;DHT22;5793;52.238;13.438;2022-12-20T02:08:53;4.50;99.90
11474;DHT22;5793;52.238;13.438;2022-12-20T02:11:39;4.50;99.90
11474;DHT22;5793;52.238;13.438;2022-12-20T02:14:21;4.50;99.90
11474;DHT22;5793;52.238;13.438;2022-12-20T02:16:59;4.40;99.90
11474;DHT22;5793;52.238;13.438;2022-12-20T02:19:51;4.40;99.90
11474;DHT22;5793;52.238;13.438;2022-12-20T02:22:25;4.40;99.90
11474;DHT22;5793;52.238;13.438;2022-12-20T02:25:08;4.40;99.90
11474;DHT22;5793;52.238;13.438;2022-12-20T02:27:47;4.40;99.90
11474;DHT22;5793;52.238;13.438;2022-12-20T02:30:21;4.40;99.90
11474;DHT22;5793;52.238;13.438;2022-12-20T02:32:54;4.40;99.90
11474;DHT22;5793;52.238;13.438;2022-12-20T02:35:25;4.40;99.90
11474;DHT22;5793;52.238;13.438;2022-12-20T02:37:55;4.40;99.90
11474;DHT22;5793;52.238;13.438;2022-12-20T02:40:26;4.40;99.90
11474;DHT22;5793;52.238;13.438;2022-12-20T02:42:57;4.40;99.90
11474;DHT22;5793;52.238;13.438;2022-12-20T02:45:29;4.40;99.90
11474;DHT22;5793;52.238;13.438;2022-12-20T02:48:01;4.40;99.90
11474;DHT22;5793;52.238;13.438;2022-12-20T02:50:33;4.40;99.90
11474;DHT22;5793;52.238;13.438;2022-12-20T02:53:02;4.30;99.90
11474;DHT22;5793;52.238;13.438;2022-12-20T02:55:37;4.30;99.90
11474;DHT22;5793;52.238;13.438;2022-12-20T02:58:12;4.30;99.90
11474;DHT22;5793;52.238;13.438;2022-12-20T03:00:45;4.30;99.90
11474;DHT22;5793;52.238;13.438;2022-12-20T03:03:14;4.20;99.90
11474;DHT22;5793;52.238;13.438;2022-12-20T03:05:53;4.20;99.90
11474;DHT22;5793;52.238;13.438;2022-12-20T03:08:22;4.30;99.90
11474;DHT22;5793;52.238;13.438;2022-12-20T03:10:51;4.30;99.90
11474;DHT22;5793;52.238;13.438;2022-12-20T03:13:20;4.40;99.90
11474;DHT22;5793;52.238;13.438;2022-12-20T03:16:07;4.40;99.90
11474;DHT22;5793;52.238;13.438;2022-12-20T03:18:36;4.50;99.90
11474;DHT22;5793;52.238;13.438;2022-12-20T03:21:04;4.50;99.90
11474;DHT22;5793;52.238;13.438;2022-12-20T03:23:32;4.60;99.90
11474;DHT22;5793;52.238;13.438;2022-12-20T03:26:00;4.60;99.90
11474;DHT22;5793;52.238;13.438;2022-12-20T03:28:28;4.60;99.90
11474;DHT22;5793;52.238;13.438;2022-12-20T03:30:56;4.70;99.90
11474;DHT22;5793;52.238;13.438;2022-12-20T03:33:25;4.70;99.90
11474;DHT22;5793;52.238;13.438;2022-12-20T03:35:52;4.80;99.90
11474;DHT22;5793;52.238;13.438;2022-12-20T03:38:20;4.80;99.90
11474;DHT22;5793;52.238;13.438;2022-12-20T03:40:48;4.80;99.90
11474;DHT22;5793;52.238;13.438;2022-12-20T03:43:16;4.80;99.90
11474;DHT22;5793;52.238;13.438;2022-12-20T03:45:43;4.90;99.90
11474;DHT22;5793;52.238;13.438;2022-12-20T03:48:11;4.90;99.90
11474;DHT22;5793;52.238;13.438;2022-12-20T03:50:40;4.90;99.90
11474;DHT22;5793;52.238;13.438;2022-12-20T03:53:08;4.90;99.90
11474;DHT22;5793;52.238;13.438;2022-12-20T03:55:36;5.00;99.90
11474;DHT22;5793;52.238;13.438;2022-12-20T03:58:03;5.00;99.90
11474;DHT22;5793;52.238;13.438;2022-12-20T04:00:31;5.00;99.90
11474;DHT22;5793;52.238;13.438;2022-12-20T04:02:59;5.00;99.90
11474;DHT22;5793;52.238;13.438;2022-12-20T04:05:27;5.10;99.90
11474;DHT22;5793;52.238;13.438;2022-12-20T04:07:56;5.10;99.90
11474;DHT22;5793;52.238;13.438;2022-12-20T04:10:24;5.10;99.90
11474;DHT22;5793;52.238;13.438;2022-12-20T04:12:51;5.00;99.90
11474;DHT22;5793;52.238;13.438;2022-12-20T04:15:19;5.00;99.90
11474;DHT22;5793;52.238;13.438;2022-12-20T04:17:47;5.00;99.90
11474;DHT22;5793;52.238;13.438;2022-12-20T04:20:16;5.10;99.90
11474;DHT22;5793;52.238;13.438;2022-12-20T04:22:47;5.20;99.90
11474;DHT22;5793;52.238;13.438;2022-12-20T04:25:18;5.10;99.90
11474;DHT22;5793;52.238;13.438;2022-12-20T04:27:46;5.10;99.90
11474;DHT22;5793;52.238;13.438;2022-12-20T04:30:14;5.10;99.90
11474;DHT22;5793;52.238;13.438;2022-12-20T04:32:42;5.20;99.90
11474;DHT22;5793;52.238;13.438;2022-12-20T04:35:10;5.10;99.90
11474;DHT22;5793;52.238;13.438;2022-12-20T04:37:38;5.20;99.90
11474;DHT22;5793;52.238;13.438;2022-12-20T04:40:06;5.20;99.90
11474;DHT22;5793;52.238;13.438;2022-12-20T04:42:36;5.20;99.90
11474;DHT22;5793;52.238;13.438;2022-12-20T04:45:04;5.20;99.90
11474;DHT22;5793;52.238;13.438;2022-12-20T04:47:32;5.20;99.90
11474;DHT22;5793;52.238;13.438;2022-12-20T04:50:00;5.20;99.90
11474;DHT22;5793;52.238;13.438;2022-12-20T04:52:27;5.30;99.90
11474;DHT22;5793;52.238;13.438;2022-12-20T04:55:14;5.30;99.90
11474;DHT22;5793;52.238;13.438;2022-12-20T04:57:43;5.30;99.90
11474;DHT22;5793;52.238;13.438;2022-12-20T05:00:12;5.30;99.90
11474;DHT22;5793;52.238;13.438;2022-12-20T05:02:41;5.30;99.90
11474;DHT22;5793;52.238;13.438;2022-12-20T05:05:09;5.30;99.90
11474;DHT22;5793;52.238;13.438;2022-12-20T05:07:37;5.30;99.90
11474;DHT22;5793;52.238;13.438;2022-12-20T05:10:05;5.20;99.90
11474;DHT22;5793;52.238;13.438;2022-12-20T05:12:33;5.20;99.90
11474;DHT22;5793;52.238;13.438;2022-12-20T05:15:03;5.10;99.90
11474;DHT22;5793;52.238;13.438;2022-12-20T05:17:31;5.10;99.90
11474;DHT22;5793;52.238;13.438;2022-12-20T05:19:58;5.00;99.90
11474;DHT22;5793;52.238;13.438;2022-12-20T05:22:26;5.00;99.90
11474;DHT22;5793;52.238;13.438;2022-12-20T05:25:12;5.00;99.90
11474;DHT22;5793;52.238;13.438;2022-12-20T05:27:57;5.00;99.90
11474;DHT22;5793;52.238;13.438;2022-12-20T05:30:27;5.00;99.90
11474;DHT22;5793;52.238;13.438;2022-12-20T05:32:55;5.00;99.90
11474;DHT22;5793;52.238;13.438;2022-12-20T05:35:23;5.00;99.90
11474;DHT22;5793;52.238;13.438;2022-12-20T05:37:50;5.00;99.90
11474;DHT22;5793;52.238;13.438;2022-12-20T05:40:18;5.00;99.90
11474;DHT22;5793;52.238;13.438;2022-12-20T05:42:46;5.00;99.90
11474;DHT22;5793;52.238;13.438;2022-12-20T05:45:14;5.00;99.90
11474;DHT22;5793;52.238;13.438;2022-12-20T05:47:43;5.00;99.90
11474;DHT22;5793;52.238;13.438;2022-12-20T05:50:11;5.10;99.90
11474;DHT22;5793;52.238;13.438;2022-12-20T05:52:44;5.10;99.90
11474;DHT22;5793;52.238;13.438;2022-12-20T05:55:12;5.10;99.90
11474;DHT22;5793;52.238;13.438;2022-12-20T05:57:40;5.20;99.90
11474;DHT22;5793;52.238;13.438;2022-12-20T06:00:09;5.30;99.90
11474;DHT22;5793;52.238;13.438;2022-12-20T06:02:37;5.30;99.90
11474;DHT22;5793;52.238;13.438;2022-12-20T06:05:07;5.40;99.90
11474;DHT22;5793;52.238;13.438;2022-12-20T06:07:35;5.50;99.90
11474;DHT22;5793;52.238;13.438;2022-12-20T06:10:03;5.50;99.90
11474;DHT22;5793;52.238;13.438;2022-12-20T06:12:31;5.60;99.90
11474;DHT22;5793;52.238;13.438;2022-12-20T06:15:00;5.70;99.90
11474;DHT22;5793;52.238;13.438;2022-12-20T06:17:28;5.70;99.90
11474;DHT22;5793;52.238;13.438;2022-12-20T06:19:56;5.70;99.90
11474;DHT22;5793;52.238;13.438;2022-12-20T06:22:25;5.70;99.90
11474;DHT22;5793;52.238;13.438;2022-12-20T06:24:53;5.80;99.90
11474;DHT22;5793;52.238;13.438;2022-12-20T06:27:20;5.80;99.90
11474;DHT22;5793;52.238;13.438;2022-12-20T06:29:48;5.90;99.90
11474;DHT22;5793;52.238;13.438;2022-12-20T06:32:19;5.90;99.90
11474;DHT22;5793;52.238;13.438;2022-12-20T06:34:47;5.90;99.90
11474;DHT22;5793;52.238;13.438;2022-12-20T06:37:15;5.90;99.90
11474;DHT22;5793;52.238;13.438;2022-12-20T06:39:44;6.00;99.90
11474;DHT22;5793;52.238;13.438;2022-12-20T06:42:12;6.00;99.90
11474;DHT22;5793;52.238;13.438;2022-12-20T06:44:40;6.00;99.90
11474;DHT22;5793;52.238;13.438;2022-12-20T06:47:07;6.00;99.90
11474;DHT22;5793;52.238;13.438;2022-12-20T06:49:35;6.00;99.90
11474;DHT22;5793;52.238;13.438;2022-12-20T06:52:03;6.10;99.90
11474;DHT22;5793;52.238;13.438;2022-12-20T06:54:31;6.10;99.90
11474;DHT22;5793;52.238;13.438;2022-12-20T06:57:00;6.10;99.90
11474;DHT22;5793;52.238;13.438;2022-12-20T06:59:29;6.10;99.90
11474;DHT22;5793;52.238;13.438;2022-12-20T07:01:56;6.10;99.90
11474;DHT22;5793;52.238;13.438;2022-12-20T07:04:24;6.10;99.90
11474;DHT22;5793;52.238;13.438;2022-12-20T07:06:52;6.10;99.90
11474;DHT22;5793;52.238;13.438;2022-12-20T07:09:20;6.20;99.90
11474;DHT22;5793;52.238;13.438;2022-12-20T07:11:48;6.10;99.90
11474;DHT22;5793;52.238;13.438;2022-12-20T07:14:17;6.20;99.90
11474;DHT22;5793;52.238;13.438;2022-12-20T07:16:45;6.20;99.90
11474;DHT22;5793;52.238;13.438;2022-12-20T07:19:13;6.20;99.90
11474;DHT22;5793;52.238;13.438;2022-12-20T07:21:42;6.20;99.90
11474;DHT22;5793;52.238;13.438;2022-12-20T07:24:10;6.20;99.90
11474;DHT22;5793;52.238;13.438;2022-12-20T07:26:37;6.20;99.90
11474;DHT22;5793;52.238;13.438;2022-12-20T07:29:05;6.20;99.90
11474;DHT22;5793;52.238;13.438;2022-12-20T07:31:42;6.30;99.90
11474;DHT22;5793;52.238;13.438;2022-12-20T07:34:10;6.30;99.90
11474;DHT22;5793;52.238;13.438;2022-12-20T07:36:38;6.30;99.90
11474;DHT22;5793;52.238;13.438;2022-12-20T07:39:05;6.40;99.90
11474;DHT22;5793;52.238;13.438;2022-12-20T07:41:33;6.40;99.90
11474;DHT22;5793;52.238;13.438;2022-12-20T07:44:02;6.40;99.90
11474;DHT22;5793;52.238;13.438;2022-12-20T07:46:32;6.40;99.90
11474;DHT22;5793;52.238;13.438;2022-12-20T07:49:01;6.40;99.90
11474;DHT22;5793;52.238;13.438;2022-12-20T07:51:34;6.40;99.90
11474;DHT22;5793;52.238;13.438;2022-12-20T07:54:07;6.40;99.90
11474;DHT22;5793;52.238;13.438;2022-12-20T07:56:39;6.50;99.90
11474;DHT22;5793;52.238;13.438;2022-12-20T07:59:09;6.50;99.90
11474;DHT22;5793;52.238;13.438;2022-12-20T08:01:38;6.50;99.90
11474;DHT22;5793;52.238;13.438;2022-12-20T08:04:12;6.50;99.90
11474;DHT22;5793;52.238;13.438;2022-12-20T08:06:41;6.50;99.90
11474;DHT22;5793;52.238;13.438;2022-12-20T08:09:10;6.50;99.90
11474;DHT22;5793;52.238;13.438;2022-12-20T08:11:40;6.50;99.90
11474;DHT22;5793;52.238;13.438;2022-12-20T08:14:10;6.40;99.90
11474;DHT22;5793;52.238;13.438;2022-12-20T08:16:38;6.40;99.90
11474;DHT22;5793;52.238;13.438;2022-12-20T08:19:06;6.40;99.90
11474;DHT22;5793;52.238;13.438;2022-12-20T08:21:35;6.40;99.90
11474;DHT22;5793;52.238;13.438;2022-12-20T08:24:03;6.30;99.90
11474;DHT22;5793;52.238;13.438;2022-12-20T08:26:31;6.30;99.90
11474;DHT22;5793;52.238;13.438;2022-12-20T08:29:03;6.30;99.90
11474;DHT22;5793;52.238;13.438;2022-12-20T08:31:31;6.30;99.90
11474;DHT22;5793;52.238;13.438;2022-12-20T08:33:59;6.40;99.90
11474;DHT22;5793;52.238;13.438;2022-12-20T08:36:26;6.30;99.90
11474;DHT22;5793;52.238;13.438;2022-12-20T08:38:56;6.40;99.90
11474;DHT22;5793;52.238;13.438;2022-12-20T08:41:23;6.40;99.90
11474;DHT22;5793;52.238;13.438;2022-12-20T08:43:51;6.40;99.90
11474;DHT22;5793;52.238;13.438;2022-12-20T08:46:19;6.50;99.90
11474;DHT22;5793;52.238;13.438;2022-12-20T08:48:47;6.40;99.90
11474;DHT22;5793;52.238;13.438;2022-12-20T08:51:15;6.40;99.90
11474;DHT22;5793;52.238;13.438;2022-12-20T08:53:43;6.50;99.90
11474;DHT22;5793;52.238;13.438;2022-12-20T08:56:13;6.50;99.90
11474;DHT22;5793;52.238;13.438;2022-12-20T08:58:42;6.60;99.90
11474;DHT22;5793;52.238;13.438;2022-12-20T09:01:13;6.60;99.90
11474;DHT22;5793;52.238;13.438;2022-12-20T09:03:42;6.60;99.90
11474;DHT22;5793;52.238;13.438;2022-12-20T09:06:12;6.50;99.90
11474;DHT22;5793;52.238;13.438;2022-12-20T09:08:40;6.60;99.90
11474;DHT22;5793;52.238;13.438;2022-12-20T09:11:10;6.60;99.90
11474;DHT22;5793;52.238;13.438;2022-12-20T09:13:40;6.70;99.90
11474;DHT22;5793;52.238;13.438;2022-12-20T09:16:12;6.80;99.90
11474;DHT22;5793;52.238;13.438;2022-12-20T09:18:39;6.70;99.90
11474;DHT22;5793;52.238;13.438;2022-12-20T09:21:08;6.70;99.90
11474;DHT22;5793;52.238;13.438;2022-12-20T09:23:37;6.70;99.90
11474;DHT22;5793;52.238;13.438;2022-12-20T09:26:06;6.70;99.90
11474;DHT22;5793;52.238;13.438;2022-12-20T09:28:35;6.70;99.90
11474;DHT22;5793;52.238;13.438;2022-12-20T09:31:06;6.60;99.90
11474;DHT22;5793;52.238;13.438;2022-12-20T09:33:34;6.60;99.90
11474;DHT22;5793;52.238;13.438;2022-12-20T09:36:03;6.60;99.90
11474;DHT22;5793;52.238;13.438;2022-12-20T09:38:31;6.60;99.90
11474;DHT22;5793;52.238;13.438;2022-12-20T09:41:03;6.60;99.90
11474;DHT22;5793;52.238;13.438;2022-12-20T09:43:31;6.60;99.90
11474;DHT22;5793;52.238;13.438;2022-12-20T09:46:01;6.70;99.90
11474;DHT22;5793;52.238;13.438;2022-12-20T09:48:33;6.70;99.90
11474;DHT22;5793;52.238;13.438;2022-12-20T09:51:10;6.60;99.90
11474;DHT22;5793;52.238;13.438;2022-12-20T09:53:51;6.60;99.90
11474;DHT22;5793;52.238;13.438;2022-12-20T09:56:26;6.60;99.90
11474;DHT22;5793;52.238;13.438;2022-12-20T09:58:59;6.60;99.90
11474;DHT22;5793;52.238;13.438;2022-12-20T10:01:29;6.60;99.90
11474;DHT22;5793;52.238;13.438;2022-12-20T10:04:11;6.60;99.90
11474;DHT22;5793;52.238;13.438;2022-12-20T10:07:04;6.60;99.90
11474;DHT22;5793;52.238;13.438;2022-12-20T10:09:47;6.70;99.90
11474;DHT22;5793;52.238;13.438;2022-12-20T10:12:27;6.80;99.90
11474;DHT22;5793;52.238;13.438;2022-12-20T10:15:08;6.90;99.90
11474;DHT22;5793;52.238;13.438;2022-12-20T10:17:49;7.00;99.90
11474;DHT22;5793;52.238;13.438;2022-12-20T10:20:45;7.20;99.90
11474;DHT22;5793;52.238;13.438;2022-12-20T10:23:20;7.40;99.90
11474;DHT22;5793;52.238;13.438;2022-12-20T10:25:59;7.60;99.90
11474;DHT22;5793;52.238;13.438;2022-12-20T10:28:29;7.90;99.90
11474;DHT22;5793;52.238;13.438;2022-12-20T10:30:59;8.10;99.90
11474;DHT22;5793;52.238;13.438;2022-12-20T10:33:29;8.10;99.90
11474;DHT22;5793;52.238;13.438;2022-12-20T10:36:21;8.20;99.90
11474;DHT22;5793;52.238;13.438;2022-12-20T10:38:51;8.20;99.90
11474;DHT22;5793;52.238;13.438;2022-12-20T10:41:21;8.20;99.90
11474;DHT22;5793;52.238;13.438;2022-12-20T10:44:00;8.40;99.90
11474;DHT22;5793;52.238;13.438;2022-12-20T10:46:37;8.50;99.90
11474;DHT22;5793;52.238;13.438;2022-12-20T10:49:23;8.60;99.90
11474;DHT22;5793;52.238;13.438;2022-12-20T10:51:57;8.60;99.90
11474;DHT22;5793;52.238;13.438;2022-12-20T10:54:29;8.60;99.90
11474;DHT22;5793;52.238;13.438;2022-12-20T10:56:59;8.60;99.90
11474;DHT22;5793;52.238;13.438;2022-12-20T10:59:32;8.50;99.90
11474;DHT22;5793;52.238;13.438;2022-12-20T11:02:02;8.30;99.90
11474;DHT22;5793;52.238;13.438;2022-12-20T11:04:32;8.20;99.90
11474;DHT22;5793;52.238;13.438;2022-12-20T11:07:21;8.20;99.90
11474;DHT22;5793;52.238;13.438;2022-12-20T11:09:54;8.20;99.90
11474;DHT22;5793;52.238;13.438;2022-12-20T11:12:22;8.30;99.90
11474;DHT22;5793;52.238;13.438;2022-12-20T11:15:07;8.40;99.90
11474;DHT22;5793;52.238;13.438;2022-12-20T11:17:37;8.70;99.90
11474;DHT22;5793;52.238;13.438;2022-12-20T11:20:24;8.90;99.90
11474;DHT22;5793;52.238;13.438;2022-12-20T11:23:03;9.20;99.90
11474;DHT22;5793;52.238;13.438;2022-12-20T11:25:42;9.30;99.90
11474;DHT22;5793;52.238;13.438;2022-12-20T11:28:26;9.30;99.90
11474;DHT22;5793;52.238;13.438;2022-12-20T11:31:03;9.00;99.90
11474;DHT22;5793;52.238;13.438;2022-12-20T11:33:51;8.80;99.90
11474;DHT22;5793;52.238;13.438;2022-12-20T11:36:29;8.70;99.90
11474;DHT22;5793;52.238;13.438;2022-12-20T11:39:10;8.60;99.90
11474;DHT22;5793;52.238;13.438;2022-12-20T11:41:45;8.60;99.90
11474;DHT22;5793;52.238;13.438;2022-12-20T11:44:21;8.50;99.90
11474;DHT22;5793;52.238;13.438;2022-12-20T11:50:01;8.50;99.90
11474;DHT22;5793;52.238;13.438;2022-12-20T11:52:35;8.40;99.90
11474;DHT22;5793;52.238;13.438;2022-12-20T11:55:16;8.50;99.90
11474;DHT22;5793;52.238;13.438;2022-12-20T11:57:53;8.50;99.90
11474;DHT22;5793;52.238;13.438;2022-12-20T12:00:49;8.50;99.90
11474;DHT22;5793;52.238;13.438;2022-12-20T12:03:22;8.50;99.90
11474;DHT22;5793;52.238;13.438;2022-12-20T12:05:56;8.60;99.90
11474;DHT22;5793;52.238;13.438;2022-12-20T12:08:31;8.60;99.90
11474;DHT22;5793;52.238;13.438;2022-12-20T12:11:06;8.50;99.90
11474;DHT22;5793;52.238;13.438;2022-12-20T12:13:57;8.50;99.90
11474;DHT22;5793;52.238;13.438;2022-12-20T12:16:27;8.50;99.90
11474;DHT22;5793;52.238;13.438;2022-12-20T12:18:57;8.50;99.90
11474;DHT22;5793;52.238;13.438;2022-12-20T12:21:30;8.60;99.90
11474;DHT22;5793;52.238;13.438;2022-12-20T12:24:03;8.60;99.90
11474;DHT22;5793;52.238;13.438;2022-12-20T12:26:34;8.60;99.90
11474;DHT22;5793;52.238;13.438;2022-12-20T12:29:10;8.60;99.90
11474;DHT22;5793;52.238;13.438;2022-12-20T12:31:43;8.60;99.90
11474;DHT22;5793;52.238;13.438;2022-12-20T12:34:25;8.60;99.90
11474;DHT22;5793;52.238;13.438;2022-12-20T12:37:13;8.60;99.90
11474;DHT22;5793;52.238;13.438;2022-12-20T12:40:07;8.60;99.90
11474;DHT22;5793;52.238;13.438;2022-12-20T12:43:02;8.30;99.90
11474;DHT22;5793;52.238;13.438;2022-12-20T12:45:40;8.30;99.90
11474;DHT22;5793;52.238;13.438;2022-12-20T12:48:14;8.20;99.90
11474;DHT22;5793;52.238;13.438;2022-12-20T12:50:46;8.20;99.90
11474;DHT22;5793;52.238;13.438;2022-12-20T12:53:18;8.20;99.90
11474;DHT22;5793;52.238;13.438;2022-12-20T12:55:48;8.10;99.90
11474;DHT22;5793;52.238;13.438;2022-12-20T12:58:40;8.00;99.90
11474;DHT22;5793;52.238;13.438;2022-12-20T13:01:47;7.90;99.90
11474;DHT22;5793;52.238;13.438;2022-12-20T13:04:26;8.00;99.90
11474;DHT22;5793;52.238;13.438;2022-12-20T13:07:01;8.00;99.90
11474;DHT22;5793;52.238;13.438;2022-12-20T13:09:37;8.00;99.90
11474;DHT22;5793;52.238;13.438;2022-12-20T13:15:50;7.80;99.90
11474;DHT22;5793;52.238;13.438;2022-12-20T13:18:26;7.70;99.90
11474;DHT22;5793;52.238;13.438;2022-12-20T13:33:37;7.50;99.90
11474;DHT22;5793;52.238;13.438;2022-12-20T13:36:38;7.50;99.90
11474;DHT22;5793;52.238;13.438;2022-12-20T13:39:29;7.40;99.90
11474;DHT22;5793;52.238;13.438;2022-12-20T13:42:25;7.40;99.90
11474;DHT22;5793;52.238;13.438;2022-12-20T13:44:54;7.40;99.90
11474;DHT22;5793;52.238;13.438;2022-12-20T13:47:31;7.40;99.90
11474;DHT22;5793;52.238;13.438;2022-12-20T13:50:25;7.40;99.90
11474;DHT22;5793;52.238;13.438;2022-12-20T13:52:53;7.30;99.90
11474;DHT22;5793;52.238;13.438;2022-12-20T13:55:26;7.30;99.90
11474;DHT22;5793;52.238;13.438;2022-12-20T13:57:57;7.30;99.90
11474;DHT22;5793;52.238;13.438;2022-12-20T14:00:30;7.30;99.90
11474;DHT22;5793;52.238;13.438;2022-12-20T14:03:00;7.30;99.90
11474;DHT22;5793;52.238;13.438;2022-12-20T14:05:36;7.20;99.90
11474;DHT22;5793;52.238;13.438;2022-12-20T14:08:07;7.20;99.90
11474;DHT22;5793;52.238;13.438;2022-12-20T14:10:35;7.10;99.90
11474;DHT22;5793;52.238;13.438;2022-12-20T14:13:18;7.10;99.90
11474;DHT22;5793;52.238;13.438;2022-12-20T14:15:46;7.10;99.90
11474;DHT22;5793;52.238;13.438;2022-12-20T14:18:16;7.00;99.90
11474;DHT22;5793;52.238;13.438;2022-12-20T14:20:48;7.00;99.90
11474;DHT22;5793;52.238;13.438;2022-12-20T14:23:20;7.00;99.90
11474;DHT22;5793;52.238;13.438;2022-12-20T14:25:50;7.00;99.90
11474;DHT22;5793;52.238;13.438;2022-12-20T14:28:27;6.90;99.90
11474;DHT22;5793;52.238;13.438;2022-12-20T14:30:58;6.90;99.90
11474;DHT22;5793;52.238;13.438;2022-12-20T14:33:30;6.80;99.90
11474;DHT22;5793;52.238;13.438;2022-12-20T14:36:18;6.80;99.90
11474;DHT22;5793;52.238;13.438;2022-12-20T14:38:47;6.80;99.90
11474;DHT22;5793;52.238;13.438;2022-12-20T14:41:32;6.80;99.90
11474;DHT22;5793;52.238;13.438;2022-12-20T14:44:10;6.80;99.90
11474;DHT22;5793;52.238;13.438;2022-12-20T14:46:40;6.80;99.90
11474;DHT22;5793;52.238;13.438;2022-12-20T14:49:21;6.80;99.90
11474;DHT22;5793;52.238;13.438;2022-12-20T14:52:03;6.70;99.90
11474;DHT22;5793;52.238;13.438;2022-12-20T14:54:32;6.60;99.90
11474;DHT22;5793;52.238;13.438;2022-12-20T14:57:23;6.60;99.90
11474;DHT22;5793;52.238;13.438;2022-12-20T15:00:00;6.60;99.90
11474;DHT22;5793;52.238;13.438;2022-12-20T15:02:34;6.70;99.90
11474;DHT22;5793;52.238;13.438;2022-12-20T15:05:08;6.60;99.90
11474;DHT22;5793;52.238;13.438;2022-12-20T15:07:39;6.70;99.90
11474;DHT22;5793;52.238;13.438;2022-12-20T15:10:08;6.60;99.90
11474;DHT22;5793;52.238;13.438;2022-12-20T15:12:35;6.60;99.90
11474;DHT22;5793;52.238;13.438;2022-12-20T15:15:11;6.60;99.90
11474;DHT22;5793;52.238;13.438;2022-12-20T15:17:55;6.50;99.90
11474;DHT22;5793;52.238;13.438;2022-12-20T15:20:23;6.50;99.90
11474;DHT22;5793;52.238;13.438;2022-12-20T15:22:52;6.60;99.90
11474;DHT22;5793;52.238;13.438;2022-12-20T15:25:19;6.70;99.90
11474;DHT22;5793;52.238;13.438;2022-12-20T15:27:47;6.60;99.90
11474;DHT22;5793;52.238;13.438;2022-12-20T15:30:16;6.60;99.90
11474;DHT22;5793;52.238;13.438;2022-12-20T15:32:44;6.60;99.90
11474;DHT22;5793;52.238;13.438;2022-12-20T15:35:21;6.60;99.90
11474;DHT22;5793;52.238;13.438;2022-12-20T15:37:51;6.50;99.90
11474;DHT22;5793;52.238;13.438;2022-12-20T15:40:19;6.50;99.90
11474;DHT22;5793;52.238;13.438;2022-12-20T15:42:47;6.50;99.90
11474;DHT22;5793;52.238;13.438;2022-12-20T15:45:15;6.40;99.90
11474;DHT22;5793;52.238;13.438;2022-12-20T15:47:43;6.40;99.90
11474;DHT22;5793;52.238;13.438;2022-12-20T15:50:10;6.40;99.90
11474;DHT22;5793;52.238;13.438;2022-12-20T15:52:39;6.40;99.90
11474;DHT22;5793;52.238;13.438;2022-12-20T15:55:10;6.50;99.90
11474;DHT22;5793;52.238;13.438;2022-12-20T15:57:38;6.40;99.90
11474;DHT22;5793;52.238;13.438;2022-12-20T16:00:08;6.40;99.90
11474;DHT22;5793;52.238;13.438;2022-12-20T16:02:36;6.40;99.90
11474;DHT22;5793;52.238;13.438;2022-12-20T16:05:04;6.30;99.90
11474;DHT22;5793;52.238;13.438;2022-12-20T16:07:34;6.30;99.90
11474;DHT22;5793;52.238;13.438;2022-12-20T16:10:03;6.30;99.90
11474;DHT22;5793;52.238;13.438;2022-12-20T16:12:33;6.40;99.90
11474;DHT22;5793;52.238;13.438;2022-12-20T16:15:02;6.40;99.90
11474;DHT22;5793;52.238;13.438;2022-12-20T16:17:30;6.40;99.90
11474;DHT22;5793;52.238;13.438;2022-12-20T16:19:58;6.40;99.90
11474;DHT22;5793;52.238;13.438;2022-12-20T16:22:26;6.40;99.90
11474;DHT22;5793;52.238;13.438;2022-12-20T16:24:54;6.40;99.90
11474;DHT22;5793;52.238;13.438;2022-12-20T16:27:21;6.40;99.90
11474;DHT22;5793;52.238;13.438;2022-12-20T16:29:51;6.30;99.90
11474;DHT22;5793;52.238;13.438;2022-12-20T16:32:19;6.30;99.90
11474;DHT22;5793;52.238;13.438;2022-12-20T16:34:48;6.30;99.90